Terminal Aerodrome Forecast
Issued by NWS

Home | Current Version | Previous Version | Text Only | Print | Product List | Glossary On
Versions: 1 2 3 4 5 6 7 8 9 10 11 12 13 14 15 16 17 18 19 20 21
000
FTUS43 KMQT 281100
TAFSAW
TAF
KSAW 281138Z 2812/2912 27007KT P6SM OVC025
     FM281600 30009KT P6SM VCSH BKN025
     FM282100 33009KT P6SM VCSH BKN030
     FM290000 32006KT P6SM SCT035
      AMD LTD TO CLD VIS AND WIND 2903/2911=

USA.gov is the U.S. government's official web portal to all federal, state and local government web resources and services.